Time;durP1;ratioP1;P1;durP2;ratioP2;P2;SDS_P1;SDS_P2;PMS_P1;PMS_P2;Temp;Humidity;BMP_temperature;BMP_pressure;BME280_temperature;BME280_humidity;BME280_pressure;Samples;Min_cycle;Max_cycle;Signal;HPM_P1;HPM_P2
2023/08/13 00:00:28;;;;;;;0.30;0.30;;;26.70;58.90;;;27.39;42.70;95212.66;5055177;28;20224;-39
2023/08/13 00:02:55;;;;;;;0.30;0.30;;;26.70;58.90;;;27.38;43.08;95219.16;5054980;28;20206;-39
2023/08/13 00:05:23;;;;;;;0.30;0.30;;;26.70;58.90;;;27.38;43.01;95219.16;5055142;28;20200;-39
2023/08/13 00:07:50;;;;;;;0.30;0.30;;;26.70;59.00;;;27.38;42.50;95229.94;5055073;28;20239;-39
2023/08/13 00:10:17;;;;;;;0.30;0.30;;;26.70;59.00;;;27.35;42.62;95225.91;5055477;28;20270;-39
2023/08/13 00:12:44;;;;;;;0.30;0.30;;;26.70;59.10;;;27.35;42.99;95225.91;5055827;28;20229;-39
2023/08/13 00:15:11;;;;;;;0.30;0.30;;;26.70;59.10;;;27.35;42.62;95217.84;5054959;28;20523;-39
2023/08/13 00:17:39;;;;;;;0.30;0.30;;;26.70;59.10;;;27.32;42.59;95221.91;5055193;28;20233;-39
2023/08/13 00:20:07;;;;;;;0.30;0.30;;;26.70;59.20;;;27.33;43.04;95225.41;5055456;28;20212;-39
2023/08/13 00:22:34;;;;;;;0.30;0.30;;;26.70;59.20;;;27.32;42.75;95224.63;5053825;28;20312;-39
2023/08/13 00:25:01;;;;;;;0.30;0.30;;;26.70;59.20;;;27.31;43.05;95222.22;5054852;28;20641;-39
2023/08/13 00:27:29;;;;;;;0.30;0.30;;;26.70;59.20;;;27.30;43.07;95224.09;5055295;28;20247;-39
2023/08/13 00:29:56;;;;;;;0.30;0.30;;;26.70;59.20;;;27.30;43.07;95224.09;5054528;28;20212;-39
2023/08/13 00:32:23;;;;;;;0.30;0.30;;;26.70;59.30;;;27.31;43.19;95223.00;5053834;28;20201;-39
2023/08/13 00:34:50;;;;;;;0.30;0.30;;;26.60;59.20;;;27.29;43.19;95227.09;5053748;28;20200;-39
2023/08/13 00:37:19;;;;;;;0.30;0.30;;;26.60;59.30;;;27.29;43.17;95224.41;5053787;28;20680;-39
2023/08/13 00:39:46;;;;;;;0.30;0.30;;;26.60;59.20;;;27.28;42.97;95229.00;5053795;28;20247;-39
2023/08/13 00:42:13;;;;;;;0.30;0.30;;;26.60;59.30;;;27.27;42.80;95223.88;5054719;28;20257;-39
2023/08/13 00:44:41;;;;;;;0.30;0.30;;;26.60;60.40;;;27.25;43.05;95226.06;5055238;28;20220;-39
2023/08/13 00:47:09;;;;;;;0.30;0.30;;;26.60;59.30;;;27.25;42.66;95228.78;5053714;28;20255;-39
2023/08/13 00:49:36;;;;;;;0.30;0.30;;;26.60;59.30;;;27.22;43.30;95224.78;5037302;28;20218;-39
2023/08/13 00:52:03;;;;;;;0.30;0.30;;;26.60;60.40;;;27.22;43.48;95234.72;5054474;28;20319;-39
2023/08/13 00:54:30;;;;;;;0.30;0.30;;;26.50;59.20;;;27.19;43.14;95229.94;5054782;28;20276;-39
2023/08/13 00:56:58;;;;;;;0.30;0.30;;;26.60;59.40;;;27.20;43.33;95223.47;5063969;28;20205;-39
2023/08/13 00:59:26;;;;;;;0.30;0.30;;;26.60;59.30;;;27.20;43.01;95231.53;5060474;28;20191;-39
2023/08/13 01:01:54;;;;;;;0.30;0.30;;;26.60;60.40;;;27.17;42.98;95222.13;5058495;28;20262;-39
2023/08/13 01:04:21;;;;;;;0.30;0.30;;;26.50;59.20;;;27.14;43.21;95220.81;5072562;28;20213;-39
2023/08/13 01:07:34;;;;;;;0.32;0.32;;;26.50;59.30;;;27.11;42.99;95223.28;5077478;28;20208;-39
2023/08/13 01:10:29;;;;;;;0.20;0.20;;;26.50;59.30;;;27.09;43.46;95226.28;5042326;28;20232;-39
2023/08/13 01:13:14;;;;;;;0.30;0.30;;;26.50;59.30;;;27.07;43.07;95228.44;5077372;28;20188;-40
2023/08/13 01:15:44;;;;;;;0.30;0.30;;;26.50;59.40;;;27.07;43.33;95241.91;5075466;28;20237;-38
2023/08/13 01:18:13;;;;;;;0.30;0.30;;;26.50;59.50;;;27.06;43.28;95234.13;5058221;28;20228;-38
2023/08/13 01:20:43;;;;;;;0.32;0.32;;;26.50;59.50;;;27.06;43.41;95226.88;5040721;28;20208;-38
2023/08/13 01:23:11;;;;;;;0.30;0.30;;;26.50;59.50;;;27.06;43.02;95224.19;5057227;28;20289;-38
2023/08/13 01:25:54;;;;;;;0.45;0.45;;;26.50;59.50;;;27.04;43.32;95230.91;5058348;28;20201;-38
2023/08/13 01:28:41;;;;;;;0.30;0.30;;;26.40;59.50;;;27.02;43.24;95227.72;5057452;28;20189;-37
2023/08/13 01:31:14;;;;;;;0.30;0.30;;;26.40;59.60;;;27.03;43.72;95229.34;5056973;28;20646;-38
2023/08/13 01:33:43;;;;;;;0.30;0.30;;;26.40;59.70;;;27.01;43.27;95226.91;5057832;28;20188;-38
2023/08/13 01:36:14;;;;;;;0.30;0.30;;;26.40;60.60;;;27.00;43.26;95228.00;5057297;28;20275;-38
2023/08/13 01:38:42;;;;;;;0.40;0.40;;;26.40;59.60;;;26.99;43.32;95227.22;5057339;28;20622;-38
2023/08/13 01:41:09;;;;;;;0.30;0.30;;;26.40;59.70;;;26.98;43.13;95235.59;5058378;28;20222;-38
2023/08/13 01:43:36;;;;;;;0.30;0.30;;;26.40;59.70;;;26.99;43.34;95237.19;5057601;28;20287;-38
2023/08/13 01:46:03;;;;;;;0.30;0.30;;;26.40;59.70;;;26.99;43.31;95229.13;5057718;28;20247;-38
2023/08/13 01:48:30;;;;;;;0.30;0.30;;;26.40;59.70;;;26.98;43.60;95236.38;5057967;28;20692;-38
2023/08/13 01:50:57;;;;;;;0.30;0.30;;;26.40;59.80;;;26.99;43.52;95243.34;5068680;28;20227;-38
2023/08/13 01:53:26;;;;;;;0.30;0.30;;;26.40;59.80;;;26.99;43.30;95235.28;5076793;28;20677;-38
2023/08/13 01:55:53;;;;;;;0.30;0.30;;;26.30;59.70;;;26.99;43.40;95234.50;5076583;28;20310;-38
2023/08/13 01:58:20;;;;;;;0.30;0.30;;;26.40;59.90;;;26.99;43.69;95237.97;5076508;28;20636;-38
2023/08/13 02:00:47;;;;;;;0.30;0.30;;;26.40;59.90;;;27.00;43.52;95238.75;5059900;28;20302;-38
2023/08/13 02:03:14;;;;;;;0.38;0.38;;;26.30;59.90;;;26.99;43.35;95243.34;5076671;28;20211;-38
2023/08/13 02:05:41;;;;;;;0.30;0.30;;;26.40;60.00;;;26.99;43.34;95247.94;5076484;28;20231;-38
2023/08/13 02:08:09;;;;;;;0.28;0.28;;;26.30;60.00;;;26.97;43.44;95247.44;5076926;28;20192;-38
2023/08/13 02:10:36;;;;;;;0.30;0.30;;;26.30;60.00;;;26.97;43.33;95263.59;5077212;28;20216;-37
2023/08/13 02:13:04;;;;;;;0.30;0.30;;;26.30;60.00;;;26.97;43.73;95244.75;5077716;28;20199;-37
2023/08/13 02:15:31;;;;;;;0.43;0.43;;;26.30;60.00;;;26.94;43.48;95243.44;5076224;28;20206;-38
2023/08/13 02:17:59;;;;;;;0.30;0.30;;;26.30;60.00;;;26.94;43.88;95246.13;5077072;28;20202;-38
2023/08/13 02:20:26;;;;;;;0.30;0.30;;;26.30;60.00;;;26.93;43.76;95249.91;5076152;28;20196;-37
2023/08/13 02:22:55;;;;;;;0.30;0.30;;;26.30;60.00;;;26.93;43.37;95252.59;5076075;28;20196;-38
2023/08/13 02:25:22;;;;;;;0.30;0.30;;;26.30;60.10;;;26.92;43.61;95250.19;5075810;28;20201;-37
2023/08/13 02:27:49;;;;;;;0.38;0.38;;;26.30;60.10;;;26.91;43.75;95244.00;5077058;28;20195;-37
2023/08/13 02:30:17;;;;;;;0.30;0.30;;;26.30;60.10;;;26.90;43.87;95236.22;5076853;28;20215;-39
2023/08/13 02:32:44;;;;;;;0.30;0.30;;;26.30;60.20;;;26.88;43.97;95230.31;5077112;28;20185;-40
2023/08/13 02:35:11;;;;;;;0.30;0.30;;;26.30;60.20;;;26.87;44.26;95228.69;5075772;28;20219;-39
2023/08/13 02:37:38;;;;;;;0.30;0.30;;;26.30;60.30;;;26.88;43.89;95224.94;5075754;28;20633;-39
2023/08/13 02:40:06;;;;;;;0.40;0.40;;;26.30;60.30;;;26.88;44.27;95233.00;5075681;28;20594;-40
2023/08/13 02:42:33;;;;;;;0.30;0.30;;;26.30;60.40;;;26.87;44.16;95236.78;5076077;28;20202;-40
2023/08/13 02:45:01;;;;;;;0.40;0.40;;;26.30;60.50;;;26.87;44.31;95237.59;5075546;28;20622;-40
2023/08/13 02:47:28;;;;;;;0.30;0.30;;;26.30;60.50;;;26.87;44.47;95244.84;5076576;28;20192;-39
2023/08/13 02:49:55;;;;;;;0.40;0.40;;;26.30;60.50;;;26.86;43.99;95243.28;5076778;28;20225;-40
2023/08/13 02:52:23;;;;;;;0.40;0.40;;;26.30;60.60;;;26.85;44.37;95239.75;5076456;28;20246;-39
2023/08/13 02:54:50;;;;;;;0.30;0.30;;;26.20;60.50;;;26.85;44.13;95239.75;5075997;28;20187;-40
2023/08/13 02:57:17;;;;;;;0.30;0.30;;;26.20;60.60;;;26.85;44.69;95237.06;5075390;28;20233;-39
2023/08/13 02:59:44;;;;;;;0.30;0.30;;;26.20;60.60;;;26.86;44.41;95248.66;5075317;28;20218;-39
2023/08/13 03:02:11;;;;;;;0.30;0.30;;;26.20;60.60;;;26.86;44.27;95237.88;5075936;28;20209;-39
2023/08/13 03:04:39;;;;;;;0.30;0.30;;;26.20;60.70;;;26.87;44.38;95251.06;5075354;28;20227;-40
2023/08/13 03:07:06;;;;;;;0.30;0.30;;;26.20;60.70;;;26.87;44.36;95248.34;5076422;28;20221;-39
2023/08/13 03:09:33;;;;;;;0.38;0.38;;;26.20;60.70;;;26.87;44.58;95247.53;5075998;28;20249;-39
2023/08/13 03:12:00;;;;;;;0.30;0.30;;;26.20;60.70;;;26.87;44.61;95250.22;5075725;28;20592;-39
2023/08/13 03:14:28;;;;;;;0.30;0.30;;;26.20;60.70;;;26.87;44.04;95252.91;5076163;28;20212;-39
2023/08/13 03:16:56;;;;;;;0.40;0.40;;;26.20;60.70;;;26.86;44.25;95259.41;5075462;28;20207;-39
2023/08/13 03:19:23;;;;;;;0.30;0.30;;;26.20;60.90;;;26.84;44.27;95257.81;5075343;28;20231;-40
2023/08/13 03:21:50;;;;;;;0.35;0.35;;;26.20;60.80;;;26.83;44.36;95261.59;5075162;28;20234;-39
2023/08/13 03:24:17;;;;;;;0.30;0.30;;;26.20;60.80;;;26.83;44.79;95263.47;5074772;28;20204;-39
2023/08/13 03:26:44;;;;;;;0.45;0.45;;;26.20;60.80;;;26.81;44.56;95265.66;5075743;28;20196;-39
2023/08/13 03:29:12;;;;;;;0.50;0.50;;;26.20;60.80;;;26.80;44.90;95266.75;5074725;28;20691;-39
2023/08/13 03:31:40;;;;;;;0.30;0.30;;;26.20;60.80;;;26.79;44.61;95263.25;5074671;28;20226;-39
2023/08/13 03:34:20;;;;;;;0.30;0.30;;;26.20;60.80;;;26.78;44.93;95266.22;5074905;28;20189;-39
2023/08/13 03:36:47;;;;;;;0.30;0.30;;;26.20;60.90;;;26.77;44.96;95261.91;5075862;28;20198;-39
2023/08/13 03:39:15;;;;;;;0.32;0.32;;;26.20;60.90;;;26.76;44.90;95277.28;5075543;28;20283;-39
2023/08/13 03:41:42;;;;;;;0.30;0.30;;;26.20;60.90;;;26.76;45.06;95271.09;5075772;28;20200;-39
2023/08/13 03:44:11;;;;;;;0.50;0.50;;;26.20;60.90;;;26.75;44.77;95281.03;5075487;28;20223;-39
2023/08/13 03:46:38;;;;;;;0.30;0.30;;;26.20;61.00;;;26.75;45.01;95280.25;5075403;28;20261;-40
2023/08/13 03:49:05;;;;;;;0.30;0.30;;;26.10;61.00;;;26.74;44.69;95274.03;5075782;28;20228;-39
2023/08/13 03:51:32;;;;;;;0.30;0.30;;;26.10;61.00;;;26.73;45.21;95277.00;5075508;28;20658;-39
2023/08/13 03:53:59;;;;;;;0.30;0.30;;;26.10;61.00;;;26.72;44.84;95281.59;5074610;28;20228;-39
2023/08/13 03:56:31;;;;;;;0.30;0.30;;;26.10;61.00;;;26.71;44.94;95284.56;5074591;28;20575;-39
2023/08/13 03:58:58;;;;;;;0.30;0.30;;;26.10;61.00;;;26.70;45.28;95283.78;5057740;28;20207;-41
2023/08/13 04:01:27;;;;;;;0.30;0.30;;;26.10;61.10;;;26.69;44.95;95277.56;5057901;28;20204;-39
2023/08/13 04:03:54;;;;;;;0.30;0.30;;;26.10;61.10;;;26.68;44.86;95276.00;5075608;28;20264;-40
2023/08/13 04:06:22;;;;;;;0.30;0.30;;;26.10;61.10;;;26.66;45.02;95278.16;5075618;28;20277;-39
2023/08/13 04:08:49;;;;;;;0.30;0.30;;;26.10;61.10;;;26.67;44.61;95281.63;5074094;28;20663;-39
2023/08/13 04:11:18;;;;;;;0.30;0.30;;;26.10;61.10;;;26.65;45.12;95276.53;5057684;28;20226;-39
2023/08/13 04:13:45;;;;;;;0.40;0.40;;;26.10;61.20;;;26.65;45.34;95276.53;5075334;28;20230;-39
2023/08/13 04:16:12;;;;;;;0.35;0.35;;;26.10;61.20;;;26.67;45.24;95273.56;5057326;28;20196;-39
2023/08/13 04:18:42;;;;;;;0.40;0.40;;;26.00;61.20;;;26.67;45.20;95276.25;5075347;28;20199;-39
2023/08/13 04:21:10;;;;;;;0.30;0.30;;;26.10;61.30;;;26.68;44.94;95284.06;5074027;28;20295;-39
2023/08/13 04:23:38;;;;;;;0.40;0.40;;;26.10;61.30;;;26.68;45.18;95283.25;5074006;28;20202;-39
2023/08/13 04:26:05;;;;;;;0.32;0.32;;;26.10;61.30;;;26.68;45.14;95283.25;5073851;28;20212;-39
2023/08/13 04:28:33;;;;;;;0.30;0.30;;;26.10;61.30;;;26.67;45.12;95290.53;5073917;28;20208;-39
2023/08/13 04:31:01;;;;;;;0.47;0.47;;;26.10;61.30;;;26.67;45.41;95287.84;5073735;28;20319;-39
2023/08/13 04:33:31;;;;;;;0.30;0.30;;;26.00;61.20;;;26.66;45.39;95288.13;5074716;28;20190;-39
2023/08/13 04:35:58;;;;;;;0.30;0.30;;;26.10;61.40;;;26.66;44.99;95285.44;5073864;28;20517;-39
2023/08/13 04:38:27;;;;;;;0.32;0.32;;;26.00;61.30;;;26.66;45.29;95291.59;5074550;28;20253;-39
2023/08/13 04:40:58;;;;;;;0.35;0.35;;;26.10;61.30;;;26.64;45.24;95293.78;5074033;28;20198;-39
2023/08/13 04:43:25;;;;;;;0.30;0.30;;;26.10;61.30;;;26.64;45.23;95295.69;5074994;28;20377;-39
2023/08/13 04:45:52;;;;;;;0.30;0.30;;;26.00;61.30;;;26.64;45.32;95290.28;5074678;28;20707;-39
2023/08/13 04:48:49;;;;;;;0.30;0.30;;;26.00;61.40;;;26.61;45.33;95293.53;5073784;28;20301;-39
2023/08/13 04:51:25;;;;;;;0.30;0.30;;;26.00;61.30;;;26.61;45.35;95294.34;5058491;28;20233;-39
2023/08/13 04:53:53;;;;;;;0.40;0.40;;;26.00;61.40;;;26.63;45.54;95299.44;5073555;28;20234;-40
2023/08/13 04:56:23;;;;;;;0.50;0.50;;;26.00;61.40;;;26.60;45.48;95290.06;5073536;28;20200;-39
2023/08/13 04:58:51;;;;;;;0.30;0.30;;;26.00;61.40;;;26.61;45.50;95294.34;5073596;28;20570;-40
2023/08/13 05:01:19;;;;;;;0.30;0.30;;;26.00;61.50;;;26.61;45.23;95297.06;5074784;28;20589;-39
2023/08/13 05:03:53;;;;;;;0.50;0.50;;;26.00;61.40;;;26.59;45.72;95301.91;5074707;28;20252;-39
2023/08/13 05:06:20;;;;;;;0.30;0.30;;;26.00;61.50;;;26.58;45.71;95300.28;5074596;28;20595;-39
2023/08/13 05:08:49;;;;;;;0.30;0.30;;;26.00;61.50;;;26.57;45.56;95297.91;5073549;28;20267;-39
2023/08/13 05:11:17;;;;;;;0.30;0.30;;;26.00;61.40;;;26.56;45.46;95299.75;5074837;28;20231;-39
2023/08/13 05:13:45;;;;;;;0.30;0.30;;;26.00;61.50;;;26.56;45.69;95299.75;5073536;28;20228;-39
2023/08/13 05:16:14;;;;;;;0.30;0.30;;;26.00;61.50;;;26.55;45.70;95300.06;5073290;28;20537;-39
2023/08/13 05:18:42;;;;;;;0.60;0.60;;;26.00;61.50;;;26.55;45.98;95302.75;5074366;28;20214;-39
2023/08/13 05:21:09;;;;;;;0.40;0.40;;;26.00;61.50;;;26.55;45.83;95308.94;5074667;28;20194;-39
2023/08/13 05:23:37;;;;;;;0.30;0.30;;;26.00;61.60;;;26.55;45.67;95302.75;5073393;28;20207;-39
2023/08/13 05:26:04;;;;;;;0.30;0.30;;;26.00;61.70;;;26.56;45.76;95301.66;5074769;28;20260;-39
2023/08/13 05:28:32;;;;;;;0.30;0.30;;;26.00;61.70;;;26.57;46.17;95309.44;5073389;28;20294;-39
2023/08/13 05:31:03;;;;;;;0.30;0.30;;;26.00;61.70;;;26.57;45.78;95314.81;5073275;28;20700;-39
2023/08/13 05:33:30;;;;;;;0.35;0.35;;;26.00;61.80;;;26.58;45.87;95311.06;5073618;28;20203;-39
2023/08/13 05:35:58;;;;;;;0.30;0.30;;;26.00;61.70;;;26.57;45.67;95317.53;5073220;28;20638;-39
2023/08/13 05:38:25;;;;;;;0.30;0.30;;;26.10;61.80;;;26.58;45.75;95308.38;5073287;28;20215;-40
2023/08/13 05:40:52;;;;;;;0.30;0.30;;;26.00;61.70;;;26.59;45.96;95311.88;5073289;28;20210;-39
2023/08/13 05:43:19;;;;;;;0.30;0.30;;;26.10;61.80;;;26.61;45.92;95312.38;5076123;28;20193;-39
2023/08/13 05:45:47;;;;;;;0.50;0.50;;;26.00;61.80;;;26.58;45.90;95316.44;5076906;28;20290;-39
2023/08/13 05:48:14;;;;;;;0.30;0.30;;;26.00;61.80;;;26.60;46.28;95310.75;5077284;28;20290;-39
2023/08/13 05:50:42;;;;;;;0.30;0.30;;;26.10;61.90;;;26.60;46.29;95311.59;5076625;28;20290;-39
2023/08/13 05:53:09;;;;;;;0.40;0.40;;;26.10;61.90;;;26.61;46.05;95318.56;5076454;28;20237;-39
2023/08/13 05:55:36;;;;;;;0.30;0.30;;;26.10;61.90;;;26.62;46.03;95314.81;5077843;28;20631;-39
2023/08/13 05:58:05;;;;;;;0.30;0.30;;;26.10;61.90;;;26.63;46.54;95311.00;5077517;28;20547;-39
2023/08/13 06:00:32;;;;;;;0.30;0.30;;;26.10;61.90;;;26.64;46.57;95307.22;5077767;28;20197;-40
2023/08/13 06:02:59;;;;;;;0.30;0.30;;;26.10;61.90;;;26.65;46.28;95316.13;5077469;28;20205;-39
2023/08/13 06:05:27;;;;;;;0.30;0.30;;;26.10;62.00;;;26.65;46.45;95306.16;5076767;28;20229;-39
2023/08/13 06:07:54;;;;;;;0.30;0.30;;;26.10;62.00;;;26.66;46.46;95306.97;5077321;28;20657;-39
2023/08/13 06:10:21;;;;;;;0.30;0.30;;;26.10;61.90;;;26.67;45.87;95305.84;5077221;28;20204;-39
2023/08/13 06:12:48;;;;;;;0.30;0.30;;;26.20;62.00;;;26.68;46.30;95310.97;5077232;28;20277;-39
2023/08/13 06:15:15;;;;;;;0.30;0.30;;;26.20;62.10;;;26.69;46.17;95306.38;5077334;28;20188;-39
2023/08/13 06:17:42;;;;;;;0.30;0.30;;;26.10;61.90;;;26.69;46.37;95309.84;5077823;28;20250;-39
2023/08/13 06:20:11;;;;;;;0.30;0.30;;;26.20;62.00;;;26.71;46.18;95314.16;5077079;28;20195;-39
2023/08/13 06:22:38;;;;;;;0.30;0.30;;;26.20;62.00;;;26.71;46.18;95312.28;5077074;28;20191;-39
2023/08/13 06:25:06;;;;;;;0.30;0.30;;;26.20;62.00;;;26.72;46.16;95307.69;5076950;28;20282;-39
2023/08/13 06:27:33;;;;;;;0.30;0.30;;;26.20;62.10;;;26.74;46.36;95308.22;5077270;28;20196;-40
2023/08/13 06:30:00;;;;;;;0.30;0.30;;;26.20;62.00;;;26.75;46.51;95315.25;5076976;28;20195;-40
2023/08/13 06:32:37;;;;;;;0.32;0.32;;;26.20;62.00;;;26.74;45.92;95309.00;5077130;28;20639;-39
2023/08/13 06:35:05;;;;;;;0.30;0.30;;;26.20;62.00;;;26.76;46.47;95311.47;5077575;28;20180;-40
2023/08/13 06:37:32;;;;;;;0.30;0.30;;;26.30;62.10;;;26.75;46.38;95299.88;5076706;28;20199;-39
2023/08/13 06:40:10;;;;;;;0.20;0.20;;;26.20;62.00;;;26.77;46.46;95302.28;5076574;28;20179;-39
2023/08/13 06:42:37;;;;;;;0.30;0.30;;;26.30;62.10;;;26.77;46.53;95300.41;5076666;28;20197;-40
2023/08/13 06:45:05;;;;;;;0.20;0.20;;;26.30;62.10;;;26.79;46.55;95306.31;5076632;28;20208;-40
2023/08/13 06:47:32;;;;;;;0.30;0.30;;;26.30;62.10;;;26.78;46.53;95310.09;5076731;28;20224;-39
2023/08/13 06:49:59;;;;;;;0.30;0.30;;;26.30;62.20;;;26.76;46.58;95306.88;5076806;28;20292;-40
2023/08/13 06:52:26;;;;;;;0.30;0.30;;;26.30;62.10;;;26.82;46.37;95313.00;5076181;28;20328;-39
2023/08/13 06:54:53;;;;;;;0.38;0.38;;;26.30;62.20;;;26.83;46.23;95311.91;5075309;28;20184;-39
2023/08/13 06:57:20;;;;;;;0.30;0.30;;;26.30;62.20;;;26.83;46.60;95315.41;5076280;28;20189;-39
2023/08/13 06:59:48;;;;;;;0.30;0.30;;;26.30;62.20;;;26.85;46.47;95320.50;5075638;28;20233;-39
2023/08/13 07:02:18;;;;;;;0.22;0.22;;;26.30;62.20;;;26.87;46.75;95325.59;5060466;28;20197;-41
2023/08/13 07:04:47;;;;;;;0.30;0.30;;;26.30;62.30;;;26.87;46.50;95325.59;5055811;28;20576;-39
2023/08/13 07:07:15;;;;;;;0.35;0.35;;;26.30;62.30;;;26.89;46.77;95326.13;5055963;28;20267;-39
2023/08/13 07:09:42;;;;;;;0.30;0.30;;;26.30;62.30;;;26.90;46.57;95323.13;5055179;28;20641;-39
2023/08/13 07:12:09;;;;;;;0.30;0.30;;;26.30;62.30;;;26.91;46.71;95329.34;5053587;28;20220;-41
2023/08/13 07:14:36;;;;;;;0.30;0.30;;;26.40;62.50;;;26.92;46.75;95325.56;5055001;28;20213;-39
2023/08/13 07:17:03;;;;;;;0.30;0.30;;;26.40;62.50;;;26.92;46.53;95323.66;5056642;28;20235;-39
2023/08/13 07:19:32;;;;;;;0.22;0.22;;;26.40;62.40;;;26.94;46.78;95328.75;5055908;28;20515;-39
2023/08/13 07:21:59;;;;;;;0.22;0.22;;;26.40;62.50;;;26.95;46.87;95323.09;5055898;28;20200;-40
2023/08/13 07:24:26;;;;;;;0.20;0.20;;;26.40;62.50;;;26.97;47.18;95326.28;5055856;28;20241;-40
2023/08/13 07:26:53;;;;;;;0.30;0.30;;;26.40;62.50;;;26.99;46.48;95328.72;5054710;28;20607;-40
2023/08/13 07:29:20;;;;;;;0.30;0.30;;;26.50;62.60;;;27.00;46.91;95330.28;5055725;28;20293;-39
2023/08/13 07:31:47;;;;;;;0.30;0.30;;;26.50;62.60;;;27.00;46.87;95325.72;5055212;28;20584;-39
2023/08/13 07:34:15;;;;;;;0.30;0.30;;;26.40;62.50;;;27.02;46.51;95324.66;5055985;28;20204;-39
2023/08/13 07:36:42;;;;;;;0.20;0.20;;;26.50;62.60;;;27.03;46.30;95327.03;5055911;28;20197;-39
2023/08/13 07:39:10;;;;;;;0.30;0.30;;;26.50;62.60;;;27.05;46.87;95321.38;5055536;28;20192;-39
2023/08/13 07:41:37;;;;;;;0.22;0.22;;;26.50;62.50;;;27.05;46.59;95330.25;5055586;28;20691;-39
2023/08/13 07:44:05;;;;;;;0.20;0.20;;;26.50;62.50;;;27.06;46.55;95328.34;5055516;28;20200;-39
2023/08/13 07:46:32;;;;;;;0.32;0.32;;;26.50;62.50;;;27.08;46.66;95331.56;5054468;28;20294;-39
2023/08/13 07:49:00;;;;;;;0.30;0.30;;;26.50;62.60;;;27.09;47.11;95330.50;5055446;28;20194;-39
2023/08/13 07:51:27;;;;;;;0.30;0.30;;;26.50;62.50;;;27.11;46.88;95330.97;5055409;28;20307;-40
2023/08/13 07:53:54;;;;;;;0.30;0.30;;;26.50;62.60;;;27.10;46.84;95327.50;5055230;28;20261;-39
2023/08/13 07:56:21;;;;;;;0.30;0.30;;;26.60;62.60;;;27.12;46.46;95321.81;5054704;28;20224;-39
2023/08/13 07:58:48;;;;;;;0.30;0.30;;;26.60;62.60;;;27.15;46.80;95318.56;5055785;28;20279;-39
2023/08/13 08:01:17;;;;;;;0.30;0.30;;;26.60;62.60;;;27.15;46.53;95324.75;5055374;28;20250;-39
2023/08/13 08:03:44;;;;;;;0.30;0.30;;;26.60;62.60;;;27.15;46.82;95322.06;5055484;28;20193;-39
2023/08/13 08:06:14;;;;;;;0.28;0.28;;;26.60;62.60;;;27.17;46.52;95321.75;5054857;28;20633;-39
2023/08/13 08:08:41;;;;;;;0.30;0.30;;;26.60;62.70;;;27.17;46.89;95319.06;5054752;28;20342;-39
2023/08/13 08:11:08;;;;;;;0.30;0.30;;;26.60;62.60;;;27.17;47.13;95314.50;5055003;28;20222;-39
2023/08/13 08:13:36;;;;;;;0.22;0.22;;;26.60;62.60;;;27.20;47.37;95318.50;5055266;28;20258;-39
2023/08/13 08:16:03;;;;;;;0.30;0.30;;;26.60;62.60;;;27.22;46.95;95318.22;5054883;28;20200;-39
2023/08/13 08:18:30;;;;;;;0.30;0.30;;;26.60;62.70;;;27.23;46.98;95317.13;5060085;28;20289;-39
2023/08/13 08:20:57;;;;;;;0.30;0.30;;;26.70;62.70;;;27.23;46.69;95315.22;5075003;28;20289;-40
2023/08/13 08:23:25;;;;;;;0.30;0.30;;;26.70;62.70;;;27.25;46.81;95315.75;5074490;28;20195;-40
2023/08/13 08:25:51;;;;;;;0.20;0.20;;;26.70;62.70;;;27.26;46.60;95322.72;5073727;28;20564;-39
2023/08/13 08:28:19;;;;;;;0.20;0.20;;;26.70;62.70;;;27.28;47.06;95312.47;5074984;28;20655;-37
2023/08/13 08:30:46;;;;;;;0.30;0.30;;;26.70;62.70;;;27.30;47.01;95310.28;5073942;28;20265;-37
2023/08/13 08:33:13;;;;;;;0.30;0.30;;;26.70;62.80;;;27.31;47.38;95314.59;5090651;28;20291;-37
2023/08/13 08:35:40;;;;;;;0.30;0.30;;;26.70;62.80;;;27.33;47.27;95301.63;5074825;28;20730;-37
2023/08/13 08:38:07;;;;;;;0.30;0.30;;;26.80;62.80;;;27.36;47.04;95310.25;5075357;28;20284;-37
2023/08/13 08:40:34;;;;;;;0.20;0.20;;;26.70;62.80;;;27.38;46.83;95308.03;5075035;28;20282;-37
2023/08/13 08:43:01;;;;;;;0.28;0.28;;;26.80;62.90;;;27.39;47.10;95302.38;5075130;28;20228;-37
2023/08/13 08:45:29;;;;;;;0.20;0.20;;;26.80;62.90;;;27.41;47.30;95302.91;5074711;28;20250;-37
2023/08/13 08:47:57;;;;;;;0.20;0.20;;;26.80;62.90;;;27.42;47.28;95295.63;5071968;28;20208;-37
2023/08/13 08:50:24;;;;;;;0.30;0.30;;;26.80;62.90;;;27.44;47.16;95294.25;5055143;28;20204;-37
2023/08/13 08:52:52;;;;;;;0.30;0.30;;;26.80;62.90;;;27.45;47.45;95293.16;5054250;28;20260;-37
2023/08/13 08:55:19;;;;;;;0.20;0.20;;;26.90;63.00;;;27.48;46.93;95295.28;5054582;28;20236;-37
2023/08/13 08:57:49;;;;;;;0.20;0.20;;;26.90;63.00;;;27.51;47.35;95296.56;5054543;28;20194;-37
2023/08/13 09:00:16;;;;;;;0.30;0.30;;;26.90;63.00;;;27.53;47.31;95296.31;5054831;28;20289;-37
2023/08/13 09:02:44;;;;;;;0.22;0.22;;;26.90;63.00;;;27.54;47.20;95289.81;5054477;28;20210;-37
2023/08/13 09:05:11;;;;;;;0.20;0.20;;;26.90;63.00;;;27.54;47.21;95285.22;5053976;28;20266;-37
2023/08/13 09:07:45;;;;;;;0.35;0.35;;;26.90;63.00;;;27.56;47.15;95283.06;5054750;28;20288;-36
2023/08/13 09:10:12;;;;;;;0.30;0.30;;;27.00;63.10;;;27.58;47.36;95285.44;5054691;28;20190;-36
2023/08/13 09:12:41;;;;;;;0.30;0.30;;;27.00;63.10;;;27.60;47.73;95281.38;5053468;28;20246;-36
2023/08/13 09:15:11;;;;;;;0.30;0.30;;;27.00;63.10;;;27.61;47.31;95282.97;5054515;28;20198;-36
2023/08/13 09:17:39;;;;;;;0.30;0.30;;;27.00;63.10;;;27.65;47.29;95280.50;5055179;28;20195;-36
2023/08/13 09:20:15;;;;;;;0.22;0.22;;;27.00;63.10;;;27.66;47.49;95284.81;5058551;28;20217;-36
2023/08/13 09:22:50;;;;;;;0.20;0.20;;;27.00;63.10;;;27.69;47.65;95283.41;5058454;28;20259;-36
2023/08/13 09:25:19;;;;;;;0.30;0.30;;;27.10;63.20;;;27.71;47.47;95275.81;5058719;28;20197;-36
2023/08/13 09:27:47;;;;;;;0.30;0.30;;;27.10;63.10;;;27.72;47.37;95269.34;5058278;28;20618;-36
2023/08/13 09:30:28;;;;;;;0.20;0.20;;;27.10;63.10;;;27.73;47.60;95270.94;5058170;28;20262;-36
2023/08/13 09:32:58;;;;;;;0.20;0.20;;;27.10;63.00;;;27.75;47.12;95271.47;5058145;28;20203;-36
2023/08/13 09:35:28;;;;;;;0.30;0.30;;;27.10;63.00;;;27.77;47.42;95270.06;5058102;28;20635;-36
2023/08/13 09:37:55;;;;;;;0.30;0.30;;;27.20;63.10;;;27.80;47.13;95266.00;5073597;28;20221;-36
2023/08/13 09:40:23;;;;;;;0.30;0.30;;;27.10;63.00;;;27.82;47.09;95263.00;5058314;28;20624;-36
2023/08/13 09:42:55;;;;;;;0.30;0.30;;;27.20;63.10;;;27.83;47.36;95254.63;5073609;28;20202;-36
2023/08/13 09:45:28;;;;;;;0.30;0.30;;;27.20;63.10;;;27.85;47.40;95257.81;5057887;28;20597;-36
2023/08/13 09:47:55;;;;;;;0.20;0.20;;;27.20;63.00;;;27.87;47.39;95255.63;5056984;28;20222;-36
2023/08/13 09:50:28;;;;;;;0.30;0.30;;;27.20;63.90;;;27.90;47.04;95246.16;5056997;28;20209;-36
2023/08/13 09:52:56;;;;;;;0.20;0.20;;;27.30;63.00;;;27.92;47.39;95252.06;5057792;28;20276;-36
2023/08/13 09:55:32;;;;;;;0.30;0.30;;;27.30;63.00;;;27.93;47.05;95246.38;5057738;28;20679;-36
2023/08/13 09:58:01;;;;;;;0.30;0.30;;;27.30;63.00;;;27.96;47.04;95247.69;5057973;28;20181;-36
2023/08/13 10:00:29;;;;;;;0.30;0.30;;;27.30;63.00;;;27.98;47.39;95248.19;5056684;28;20202;-36
2023/08/13 10:02:57;;;;;;;0.30;0.30;;;27.30;63.00;;;28.00;47.36;95256.78;5057943;28;20198;-36
2023/08/13 10:05:25;;;;;;;0.30;0.30;;;27.30;63.00;;;28.02;47.30;95257.28;5057456;28;20234;-36
2023/08/13 10:07:52;;;;;;;0.30;0.30;;;27.40;63.00;;;28.03;47.44;95256.19;5056517;28;20205;-36
2023/08/13 10:10:20;;;;;;;0.22;0.22;;;27.40;62.90;;;28.06;47.16;95252.94;5057695;28;20534;-36
2023/08/13 10:12:47;;;;;;;0.20;0.20;;;27.40;63.00;;;28.08;46.86;95256.13;5057254;28;20647;-36
2023/08/13 10:15:14;;;;;;;0.25;0.25;;;27.50;63.80;;;28.09;46.79;95252.34;5056374;28;20586;-36
2023/08/13 10:17:46;;;;;;;0.30;0.30;;;27.40;62.80;;;28.11;47.17;95249.34;5056615;28;20194;-36
2023/08/13 10:20:13;;;;;;;0.30;0.30;;;27.50;62.80;;;28.13;47.03;95251.75;5056636;28;20181;-36
2023/08/13 10:22:41;;;;;;;0.32;0.32;;;27.50;62.80;;;28.16;46.65;95256.56;5057823;28;20197;-36
2023/08/13 10:25:10;;;;;;;0.30;0.30;;;27.50;62.90;;;28.18;47.30;95265.16;5057205;28;20262;-36